createdAt,value
2018-01-15T00:00:13.468Z,-0.32
2018-01-15T00:00:54.037Z,-0.18
2018-01-15T00:01:34.593Z,-0.26
2018-01-15T00:02:15.146Z,-0.36
2018-01-15T00:02:55.882Z,-0.18
2018-01-15T00:03:36.465Z,-0.21
2018-01-15T00:04:17.026Z,-0.2
2018-01-15T00:04:57.608Z,-0.34
2018-01-15T00:05:38.165Z,-0.28
2018-01-15T00:06:18.736Z,-0.25
2018-01-15T00:06:59.327Z,-0.26
2018-01-15T00:07:39.848Z,-0.31
2018-01-15T00:08:20.407Z,-0.25
2018-01-15T00:09:00.957Z,-0.36
2018-01-15T00:09:41.508Z,-0.35
2018-01-15T00:10:22.057Z,-0.21
2018-01-15T00:11:02.618Z,-0.23
2018-01-15T00:11:43.212Z,-0.26
2018-01-15T00:12:23.769Z,-0.25
2018-01-15T00:13:04.318Z,-0.13
2018-01-15T00:13:44.872Z,-0.15
2018-01-15T00:14:25.454Z,-0.18
2018-01-15T00:15:06.012Z,-0.1
2018-01-15T00:15:46.584Z,-0.08
2018-01-15T00:16:27.155Z,-0.13
2018-01-15T00:17:07.712Z,-0.18
2018-01-15T00:17:48.264Z,-0.13
2018-01-15T00:18:28.817Z,-0.03
2018-01-15T00:19:09.385Z,-0.06
2018-01-15T00:19:49.934Z,-0.07
2018-01-15T00:20:30.494Z,-0.14
2018-01-15T00:21:11.052Z,-0.07
2018-01-15T00:21:51.620Z,-0.11
2018-01-15T00:22:32.179Z,-0.1
2018-01-15T00:23:12.729Z,-0.08
2018-01-15T00:23:53.293Z,-0.17
2018-01-15T00:24:33.857Z,-0.2
2018-01-15T00:25:14.461Z,-0.1
2018-01-15T00:25:55.032Z,-0.14
2018-01-15T00:26:35.593Z,-0.1
2018-01-15T00:27:16.234Z,-0.18
2018-01-15T00:27:56.751Z,-0.15
2018-01-15T00:28:37.324Z,-0.15
2018-01-15T00:29:17.881Z,-0.11
2018-01-15T00:29:58.446Z,-0.17
2018-01-15T00:30:39.039Z,-0.14
2018-01-15T00:31:19.598Z,-0.15
2018-01-15T00:32:00.167Z,-0.15
2018-01-15T00:32:40.720Z,-0.11
2018-01-15T00:33:21.278Z,-0.11
2018-01-15T00:34:01.854Z,-0.13
2018-01-15T00:34:42.423Z,-0.18
2018-01-15T00:35:22.987Z,-0.08
2018-01-15T00:36:03.542Z,-0.15
2018-01-15T00:36:44.115Z,-0.2
2018-01-15T00:37:24.669Z,-0.11
2018-01-15T00:38:05.260Z,-0.17
2018-01-15T00:38:45.857Z,-0.07
2018-01-15T00:39:26.413Z,-0.03
2018-01-15T00:40:06.967Z,-0.17
2018-01-15T00:40:47.533Z,-0.1
2018-01-15T00:41:28.102Z,-0.1
2018-01-15T00:42:08.662Z,-0.18
2018-01-15T00:42:49.211Z,-0.14
2018-01-15T00:43:29.785Z,-0.2
2018-01-15T00:44:10.356Z,-0.14
2018-01-15T00:44:50.964Z,-0.2
2018-01-15T00:45:31.540Z,-0.15
2018-01-15T00:46:12.117Z,-0.13
2018-01-15T00:46:52.680Z,-0.17
2018-01-15T00:47:33.241Z,-0.15
2018-01-15T00:48:13.795Z,-0.21
2018-01-15T00:48:54.350Z,-0.15
2018-01-15T00:49:34.974Z,-0.17
2018-01-15T00:50:15.505Z,-0.18
2018-01-15T00:50:56.099Z,-0.13
2018-01-15T00:51:36.659Z,-0.18
2018-01-15T00:52:17.217Z,-0.08
2018-01-15T00:52:57.767Z,-0.15
2018-01-15T00:53:38.336Z,-0.18
2018-01-15T00:54:18.893Z,-0.23
2018-01-15T00:54:59.446Z,-0.25
2018-01-15T00:55:39.993Z,-0.21
2018-01-15T00:56:20.560Z,-0.25
2018-01-15T00:57:01.108Z,-0.28
2018-01-15T00:57:41.666Z,-0.2
2018-01-15T00:58:22.226Z,-0.23
2018-01-15T00:59:02.793Z,-0.17
2018-01-15T00:59:43.344Z,-0.17
2018-01-15T01:00:23.906Z,-0.14
2018-01-15T01:01:04.455Z,-0.15
2018-01-15T01:01:45.012Z,-0.23
2018-01-15T01:02:25.566Z,-0.18
2018-01-15T01:03:06.134Z,-0.1
2018-01-15T01:03:46.686Z,-0.13
2018-01-15T01:04:27.239Z,-0.15
2018-01-15T01:05:07.797Z,-0.11
2018-01-15T01:05:48.352Z,-0.13
2018-01-15T01:06:28.898Z,-0.2
2018-01-15T01:07:09.452Z,-0.11
2018-01-15T01:07:50.009Z,-0.15
2018-01-15T01:08:30.596Z,-0.14
2018-01-15T01:09:11.139Z,-0.11
2018-01-15T01:09:51.703Z,-0.11
2018-01-15T01:10:32.263Z,-0.15
2018-01-15T01:11:12.827Z,-0.15
2018-01-15T01:11:53.381Z,-0.15
2018-01-15T01:12:33.934Z,-0.14
2018-01-15T01:13:14.484Z,-0.17
2018-01-15T01:13:55.048Z,-0.17
2018-01-15T01:14:35.604Z,-0.17
2018-01-15T01:15:16.170Z,-0.18
2018-01-15T01:15:56.744Z,-0.26
2018-01-15T01:16:37.311Z,-0.15
2018-01-15T01:17:17.885Z,-0.15
2018-01-15T01:17:58.455Z,-0.08
2018-01-15T01:18:39.020Z,-0.11
2018-01-15T01:19:19.585Z,-0.17
2018-01-15T01:20:00.136Z,-0.15
2018-01-15T01:20:40.706Z,-0.14
2018-01-15T01:21:21.277Z,-0.17
2018-01-15T01:22:01.848Z,0
2018-01-15T01:22:42.415Z,-0.06
2018-01-15T01:23:22.969Z,-0.15
2018-01-15T01:24:03.557Z,-0.14
2018-01-15T01:24:44.111Z,-0.18
2018-01-15T01:25:24.693Z,-0.14
2018-01-15T01:26:05.260Z,-0.23
2018-01-15T01:26:45.838Z,-0.1
2018-01-15T01:27:26.392Z,-0.11
2018-01-15T01:28:06.944Z,-0.14
2018-01-15T01:28:47.500Z,-0.15
2018-01-15T01:29:28.062Z,-0.21
2018-01-15T01:30:08.613Z,-0.15
2018-01-15T01:30:49.166Z,-0.15
2018-01-15T01:31:29.724Z,-0.07
2018-01-15T01:32:10.288Z,-0.11
2018-01-15T01:32:50.864Z,-0.11
2018-01-15T01:33:31.435Z,-0.13
2018-01-15T01:34:11.990Z,-0.08
2018-01-15T01:34:52.543Z,-0.2
2018-01-15T01:35:33.110Z,-0.23
2018-01-15T01:36:13.669Z,-0.11
2018-01-15T01:36:54.225Z,-0.2
2018-01-15T01:37:34.774Z,-0.18
2018-01-15T01:38:15.364Z,-0.21
2018-01-15T01:38:55.903Z,-0.23
2018-01-15T01:39:36.463Z,-0.35
2018-01-15T01:40:17.026Z,-0.36
2018-01-15T01:40:57.583Z,-0.28
2018-01-15T01:41:38.137Z,-0.32
2018-01-15T01:42:18.689Z,-0.28
2018-01-15T01:42:59.237Z,-0.34
2018-01-15T01:43:39.795Z,-0.28
2018-01-15T01:44:20.341Z,-0.21
2018-01-15T01:45:00.892Z,-0.29
2018-01-15T01:45:42.959Z,-0.36
2018-01-15T01:46:23.537Z,-0.32
2018-01-15T01:47:04.085Z,-0.21
2018-01-15T01:47:44.651Z,-0.32
2018-01-15T01:48:25.213Z,-0.28
2018-01-15T01:49:05.777Z,-0.31
2018-01-15T01:49:46.343Z,-0.31
2018-01-15T01:50:26.903Z,-0.35
2018-01-15T01:51:07.460Z,-0.26
2018-01-15T01:51:48.008Z,-0.28
2018-01-15T01:52:28.560Z,-0.26
2018-01-15T01:53:09.112Z,-0.34
2018-01-15T01:53:49.673Z,-0.34
2018-01-15T01:54:30.229Z,-0.36
2018-01-15T01:55:10.783Z,-0.25
2018-01-15T01:55:51.337Z,-0.31
2018-01-15T01:56:31.894Z,-0.34
2018-01-15T01:57:12.454Z,-0.31
2018-01-15T01:57:53.024Z,-0.34
2018-01-15T01:58:33.595Z,-0.31
2018-01-15T01:59:14.152Z,-0.28
2018-01-15T01:59:54.708Z,-0.28
2018-01-15T02:00:35.260Z,-0.29
2018-01-15T02:01:15.828Z,-0.34
2018-01-15T02:01:56.385Z,-0.31
2018-01-15T02:02:36.941Z,-0.35
2018-01-15T02:03:17.493Z,-0.35
2018-01-15T02:03:58.050Z,-0.28
2018-01-15T02:04:38.612Z,-0.32
2018-01-15T02:05:19.178Z,-0.32
2018-01-15T02:05:59.736Z,-0.26
2018-01-15T02:06:40.302Z,-0.32
2018-01-15T02:07:20.856Z,-0.35
2018-01-15T02:08:01.408Z,-0.29
2018-01-15T02:08:41.961Z,-0.34
2018-01-15T02:09:22.539Z,-0.23
2018-01-15T02:10:03.091Z,-0.31
2018-01-15T02:10:43.667Z,-0.31
2018-01-15T02:11:24.216Z,-0.31
2018-01-15T02:12:04.775Z,-0.29
2018-01-15T02:12:45.329Z,-0.32
2018-01-15T02:13:25.886Z,-0.29
2018-01-15T02:14:06.444Z,-0.31
2018-01-15T02:14:47.008Z,-0.21
2018-01-15T02:15:27.564Z,-0.21
2018-01-15T02:16:08.125Z,-0.21
2018-01-15T02:16:48.685Z,-0.2
2018-01-15T02:17:29.249Z,-0.26
2018-01-15T02:18:09.800Z,-0.26
2018-01-15T02:18:50.353Z,-0.25
2018-01-15T02:19:30.916Z,-0.17
2018-01-15T02:20:11.461Z,-0.23
2018-01-15T02:20:52.013Z,-0.21
2018-01-15T02:21:32.585Z,-0.26
2018-01-15T02:22:13.134Z,-0.25
2018-01-15T02:22:53.699Z,-0.21
2018-01-15T02:23:34.256Z,-0.2
2018-01-15T02:24:14.808Z,-0.17
2018-01-15T02:24:55.381Z,-0.23
2018-01-15T02:25:35.930Z,-0.23
2018-01-15T02:26:16.486Z,-0.26
2018-01-15T02:26:57.047Z,-0.25
2018-01-15T02:27:37.600Z,-0.28
2018-01-15T02:28:18.153Z,-0.34
2018-01-15T02:28:58.698Z,-0.34
2018-01-15T02:29:39.251Z,-0.34
2018-01-15T02:30:19.831Z,-0.26
2018-01-15T02:31:00.377Z,-0.39
2018-01-15T02:31:40.945Z,-0.21
2018-01-15T02:32:21.503Z,-0.36
2018-01-15T02:33:02.057Z,-0.26
2018-01-15T02:33:42.613Z,-0.21
2018-01-15T02:34:23.169Z,-0.23
2018-01-15T02:35:03.718Z,-0.25
2018-01-15T02:35:44.267Z,-0.2
2018-01-15T02:36:24.821Z,-0.23
2018-01-15T02:37:05.386Z,-0.15
2018-01-15T02:37:45.945Z,-0.2
2018-01-15T02:38:26.517Z,-0.28
2018-01-15T02:39:07.077Z,-0.17
2018-01-15T02:39:47.636Z,-0.28
2018-01-15T02:40:28.218Z,-0.21
2018-01-15T02:41:08.777Z,-0.28
2018-01-15T02:41:49.341Z,-0.21
2018-01-15T02:42:29.903Z,-0.21
2018-01-15T02:43:10.448Z,-0.34
2018-01-15T02:43:51.012Z,-0.28
2018-01-15T02:44:31.559Z,-0.28
2018-01-15T02:45:12.108Z,-0.34
2018-01-15T02:45:52.665Z,-0.32
2018-01-15T02:46:33.234Z,-0.34
2018-01-15T02:47:13.801Z,-0.23
2018-01-15T02:47:54.359Z,-0.21
2018-01-15T02:48:34.923Z,-0.2
2018-01-15T02:49:15.489Z,-0.21
2018-01-15T02:49:56.048Z,-0.17
2018-01-15T02:50:36.597Z,-0.28
2018-01-15T02:51:17.169Z,-0.2
2018-01-15T02:51:57.740Z,-0.2
2018-01-15T02:52:38.301Z,-0.08
2018-01-15T02:53:18.861Z,-0.2
2018-01-15T02:53:59.428Z,-0.18
2018-01-15T02:54:39.991Z,-0.17
2018-01-15T02:55:20.553Z,-0.08
2018-01-15T02:56:01.144Z,-0.17
2018-01-15T02:56:41.702Z,-0.1
2018-01-15T02:57:22.262Z,-0.11
2018-01-15T02:58:02.824Z,-0.14
2018-01-15T02:58:43.378Z,-0.11
2018-01-15T02:59:23.935Z,-0.15
2018-01-15T03:00:04.491Z,-0.14
2018-01-15T03:00:45.048Z,-0.15
2018-01-15T03:01:25.628Z,-0.06
2018-01-15T03:02:06.173Z,-0.03
2018-01-15T03:02:46.730Z,-0.06
2018-01-15T03:03:27.298Z,-0.02
2018-01-15T03:04:07.857Z,-0.11
2018-01-15T03:04:48.429Z,-0.06
2018-01-15T03:05:28.975Z,-0.02
2018-01-15T03:06:09.549Z,0
2018-01-15T03:06:50.109Z,-0.02
2018-01-15T03:07:30.720Z,-0.03
2018-01-15T03:08:11.273Z,-0.03
2018-01-15T03:08:51.823Z,-0.07
2018-01-15T03:09:32.378Z,-0.1
2018-01-15T03:10:12.951Z,-0.07
2018-01-15T03:10:53.499Z,-0.07
2018-01-15T03:11:34.057Z,-0.02
2018-01-15T03:12:14.604Z,0.01
2018-01-15T03:12:55.174Z,0.05
2018-01-15T03:13:35.728Z,0.01
2018-01-15T03:14:16.282Z,0.05
2018-01-15T03:14:56.838Z,0.05
2018-01-15T03:15:37.397Z,0.08
2018-01-15T03:16:17.953Z,0.05
2018-01-15T03:16:58.542Z,0.07
2018-01-15T03:17:39.113Z,0.15
2018-01-15T03:18:19.658Z,0.04
2018-01-15T03:19:00.215Z,0.15
2018-01-15T03:19:40.778Z,0.11
2018-01-15T03:20:21.310Z,0.1
2018-01-15T03:21:01.870Z,0.05
2018-01-15T03:21:42.452Z,0.12
2018-01-15T03:22:22.999Z,0.16
2018-01-15T03:23:03.577Z,0.08
2018-01-15T03:23:44.146Z,0.15
2018-01-15T03:24:24.711Z,0.12
2018-01-15T03:25:05.269Z,0.07
2018-01-15T03:25:45.828Z,0.12
2018-01-15T03:26:26.395Z,0.12
2018-01-15T03:27:06.959Z,0.12
2018-01-15T03:27:47.527Z,0.18
2018-01-15T03:28:28.095Z,0.18
2018-01-15T03:29:08.659Z,0.15
2018-01-15T03:29:49.204Z,0.12
2018-01-15T03:30:29.764Z,0.16
2018-01-15T03:31:10.330Z,0.11
2018-01-15T03:31:50.902Z,0.15
2018-01-15T03:32:31.457Z,0.12
2018-01-15T03:33:12.050Z,0.21
2018-01-15T03:33:52.602Z,0.18
2018-01-15T03:34:33.151Z,0.12
2018-01-15T03:35:13.721Z,0.1
2018-01-15T03:35:54.282Z,0.1
2018-01-15T03:36:34.845Z,0.1
2018-01-15T03:37:15.397Z,0.01
2018-01-15T03:37:55.956Z,-0.02
2018-01-15T03:38:36.532Z,0.03
2018-01-15T03:39:17.091Z,0.03
2018-01-15T03:39:57.647Z,0.07
2018-01-15T03:40:38.204Z,0.04
2018-01-15T03:41:18.758Z,0.04
2018-01-15T03:41:59.323Z,-0.03
2018-01-15T03:42:39.879Z,0.01
2018-01-15T03:43:20.456Z,-0.06
2018-01-15T03:44:01.012Z,-0.02
2018-01-15T03:44:41.564Z,0.03
2018-01-15T03:45:22.133Z,-0.06
2018-01-15T03:46:02.694Z,-0.02
2018-01-15T03:46:43.247Z,-0.13
2018-01-15T03:47:23.801Z,-0.14
2018-01-15T03:48:04.363Z,-0.1
2018-01-15T03:48:44.936Z,-0.07
2018-01-15T03:49:25.495Z,-0.14
2018-01-15T03:50:06.058Z,-0.08
2018-01-15T03:50:46.620Z,-0.14
2018-01-15T03:51:27.195Z,0
2018-01-15T03:52:07.748Z,-0.06
2018-01-15T03:52:48.324Z,-0.08
2018-01-15T03:53:28.875Z,-0.07
2018-01-15T03:54:09.437Z,-0.08
2018-01-15T03:54:50.000Z,-0.14
2018-01-15T03:55:30.562Z,-0.13
2018-01-15T03:56:11.108Z,-0.11
2018-01-15T03:56:51.656Z,-0.18
2018-01-15T03:57:32.205Z,-0.15
2018-01-15T03:58:12.753Z,-0.2
2018-01-15T03:58:53.305Z,-0.17
2018-01-15T03:59:33.866Z,-0.2
2018-01-15T04:00:14.424Z,-0.25
2018-01-15T04:00:54.980Z,-0.21
2018-01-15T04:01:35.548Z,-0.2
2018-01-15T04:02:16.116Z,-0.15
2018-01-15T04:02:56.693Z,-0.17
2018-01-15T04:03:37.248Z,-0.14
2018-01-15T04:04:17.807Z,-0.15
2018-01-15T04:04:58.386Z,-0.11
2018-01-15T04:05:38.980Z,-0.15
2018-01-15T04:06:19.559Z,-0.11
2018-01-15T04:07:00.133Z,-0.06
2018-01-15T04:07:40.693Z,-0.03
2018-01-15T04:08:21.257Z,0
2018-01-15T04:09:01.851Z,-0.02
2018-01-15T04:09:42.415Z,-0.07
2018-01-15T04:10:22.984Z,-0.03
2018-01-15T04:11:03.541Z,0.07
2018-01-15T04:11:44.101Z,-0.06
2018-01-15T04:12:24.679Z,-0.02
2018-01-15T04:13:05.227Z,-0.08
2018-01-15T04:13:45.801Z,-0.1
2018-01-15T04:14:26.388Z,-0.06
2018-01-15T04:15:06.955Z,-0.03
2018-01-15T04:15:47.525Z,-0.07
2018-01-15T04:16:28.102Z,-0.1
2018-01-15T04:17:08.657Z,0
2018-01-15T04:17:49.211Z,-0.15
2018-01-15T04:18:29.772Z,-0.02
2018-01-15T04:19:10.353Z,0
2018-01-15T04:19:50.976Z,-0.07
2018-01-15T04:20:31.549Z,-0.07
2018-01-15T04:21:12.100Z,0.01
2018-01-15T04:21:52.678Z,0.07
2018-01-15T04:22:33.224Z,0.01
2018-01-15T04:23:13.826Z,0.05
2018-01-15T04:23:54.361Z,0.11
2018-01-15T04:24:34.925Z,0.05
2018-01-15T04:25:15.476Z,0.1
2018-01-15T04:25:56.050Z,0.07
2018-01-15T04:26:36.606Z,0.05
2018-01-15T04:27:17.166Z,0.08
2018-01-15T04:27:57.745Z,0.04
2018-01-15T04:28:38.310Z,0.07
2018-01-15T04:29:18.892Z,0.08
2018-01-15T04:29:59.464Z,0.16
2018-01-15T04:30:40.011Z,0.11
2018-01-15T04:31:20.577Z,0.18
2018-01-15T04:32:01.175Z,0.15
2018-01-15T04:32:41.739Z,0.19
2018-01-15T04:33:22.311Z,0.15
2018-01-15T04:34:59.629Z,0.16
2018-01-15T04:35:40.176Z,0.19
2018-01-15T04:36:20.727Z,0.18
2018-01-15T04:37:01.273Z,0.15
2018-01-15T04:37:41.830Z,0.16
2018-01-15T04:38:22.385Z,0.15
2018-01-15T04:39:02.939Z,0.1
2018-01-15T04:39:43.491Z,0.19
2018-01-15T04:40:24.047Z,0.18
2018-01-15T04:41:04.604Z,0.16
2018-01-15T04:41:45.166Z,0.22
2018-01-15T04:42:25.718Z,0.19
2018-01-15T04:43:06.278Z,0.15
2018-01-15T04:43:46.835Z,0.11
2018-01-15T04:44:27.392Z,0.21
2018-01-15T04:45:07.938Z,0.28
2018-01-15T04:45:48.506Z,0.23
2018-01-15T04:46:29.057Z,0.18
2018-01-15T04:47:09.599Z,0.26
2018-01-15T04:47:50.153Z,0.16
2018-01-15T04:48:30.702Z,0.18
2018-01-15T04:49:11.248Z,0.12
2018-01-15T04:49:51.795Z,0.18
2018-01-15T04:50:32.355Z,0.22
2018-01-15T04:51:12.916Z,0.26
2018-01-15T04:51:53.472Z,0.21
2018-01-15T04:52:34.028Z,0.21
2018-01-15T04:53:14.620Z,0.12
2018-01-15T04:53:55.158Z,0.19
2018-01-15T04:54:35.709Z,0.15
2018-01-15T04:55:16.265Z,0.07
2018-01-15T04:55:56.821Z,0.08
2018-01-15T04:56:37.372Z,0.11
2018-01-15T04:57:17.931Z,0.1
2018-01-15T04:57:58.482Z,0.04
2018-01-15T04:58:39.083Z,0.03
2018-01-15T04:59:19.633Z,0.05
2018-01-15T05:00:00.185Z,0.07
2018-01-15T05:00:40.768Z,0.1
2018-01-15T05:01:21.340Z,0.11
2018-01-15T05:02:01.899Z,0.1
2018-01-15T05:02:42.457Z,0.03
2018-01-15T05:03:23.021Z,0.07
2018-01-15T05:04:03.575Z,0.01
2018-01-15T05:04:44.127Z,0.01
2018-01-15T05:05:24.686Z,0.01
2018-01-15T05:06:05.246Z,0.05
2018-01-15T05:06:45.818Z,0.05
2018-01-15T05:07:26.378Z,0
2018-01-15T05:08:06.930Z,0.01
2018-01-15T05:08:47.496Z,0.04
2018-01-15T05:09:28.063Z,0.07
2018-01-15T05:10:08.613Z,0.05
2018-01-15T05:10:49.184Z,0.03
2018-01-15T05:11:29.749Z,0
2018-01-15T05:12:10.314Z,-0.03
2018-01-15T05:12:50.867Z,0.05
2018-01-15T05:13:31.425Z,0.08
2018-01-15T05:14:11.989Z,0.04
2018-01-15T05:14:52.550Z,0.04
2018-01-15T05:15:33.119Z,0.01
2018-01-15T05:16:13.677Z,0.04
2018-01-15T05:16:54.251Z,0.04
2018-01-15T05:17:34.819Z,0.1
2018-01-15T05:18:15.375Z,0.07
2018-01-15T05:18:55.937Z,0.12
2018-01-15T05:19:36.498Z,0.16
2018-01-15T05:20:17.095Z,0.1
2018-01-15T05:20:57.641Z,0.1
2018-01-15T05:21:38.197Z,0.12
2018-01-15T05:22:18.765Z,0.07
2018-01-15T05:22:59.321Z,0.08
2018-01-15T05:23:39.878Z,0.07
2018-01-15T05:24:20.431Z,0.16
2018-01-15T05:25:00.998Z,0.19
2018-01-15T05:25:41.553Z,0.12
2018-01-15T05:26:22.139Z,0.08
2018-01-15T05:27:02.697Z,0.15
2018-01-15T05:27:43.252Z,0.07
2018-01-15T05:28:23.824Z,0.1
2018-01-15T05:29:04.383Z,0.1
2018-01-15T05:29:44.941Z,0.05
2018-01-15T05:30:25.501Z,0.1
2018-01-15T05:31:06.064Z,0.01
2018-01-15T05:31:46.618Z,0.04
2018-01-15T05:32:27.177Z,0.07
2018-01-15T05:33:07.741Z,0.05
2018-01-15T05:33:48.311Z,0.07
2018-01-15T05:34:28.854Z,0.12
2018-01-15T05:35:09.418Z,0.1
2018-01-15T05:35:49.982Z,0.12
2018-01-15T05:36:30.549Z,0.1
2018-01-15T05:37:11.140Z,0.08
2018-01-15T05:37:51.691Z,0.07
2018-01-15T05:38:32.248Z,0.08
2018-01-15T05:39:12.802Z,0.07
2018-01-15T05:39:53.368Z,0.16
2018-01-15T05:40:33.937Z,0.18
2018-01-15T05:42:57.243Z,0.19
2018-01-15T05:43:37.800Z,0.16
2018-01-15T05:44:18.362Z,0.19
2018-01-15T05:45:00.642Z,0.16
2018-01-15T05:45:41.213Z,0.11
2018-01-15T05:46:21.772Z,0.03
2018-01-15T05:47:02.338Z,0.07
2018-01-15T05:47:42.995Z,0.12
2018-01-15T05:48:23.546Z,0.11
2018-01-15T05:49:04.127Z,0.1
2018-01-15T05:49:44.737Z,0.03
2018-01-15T05:50:25.284Z,0.1
2018-01-15T05:51:05.838Z,0.07
2018-01-15T05:51:46.418Z,0.04
2018-01-15T05:52:26.971Z,0.1
2018-01-15T05:53:07.530Z,0.04
2018-01-15T05:53:48.082Z,0.08
2018-01-15T05:54:28.651Z,0.07
2018-01-15T05:55:09.210Z,0.12
2018-01-15T05:55:49.777Z,0.12
2018-01-15T05:56:30.365Z,0.08
2018-01-15T05:57:10.927Z,0.19
2018-01-15T05:57:51.558Z,0.1
2018-01-15T05:58:32.064Z,0.11
2018-01-15T05:59:12.619Z,0.05
2018-01-15T05:59:53.168Z,0.08
2018-01-15T06:00:33.729Z,0.16
2018-01-15T06:01:14.297Z,0.1
2018-01-15T06:01:54.838Z,0.07
2018-01-15T06:02:35.406Z,0.1
2018-01-15T06:03:15.982Z,0.21
2018-01-15T06:03:56.545Z,0.12
2018-01-15T06:04:37.126Z,0.22
2018-01-15T06:05:17.673Z,0.23
2018-01-15T06:05:58.295Z,0.22
2018-01-15T06:06:38.853Z,0.23
2018-01-15T06:07:19.406Z,0.23
2018-01-15T06:07:59.965Z,0.26
2018-01-15T06:08:40.520Z,0.22
2018-01-15T06:09:21.070Z,0.25
2018-01-15T06:10:01.634Z,0.19
2018-01-15T06:10:42.209Z,0.18
2018-01-15T06:11:22.757Z,0.21
2018-01-15T06:12:03.349Z,0.22
2018-01-15T06:12:43.959Z,0.21
2018-01-15T06:13:24.518Z,0.23
2018-01-15T06:14:05.095Z,0.23
2018-01-15T06:14:45.645Z,0.23
2018-01-15T06:15:26.254Z,0.29
2018-01-15T06:16:06.832Z,0.28
2018-01-15T06:16:47.400Z,0.21
2018-01-15T06:17:27.959Z,0.23
2018-01-15T06:18:08.537Z,0.28
2018-01-15T06:18:49.083Z,0.28
2018-01-15T06:19:29.646Z,0.23
2018-01-15T06:20:10.233Z,0.23
2018-01-15T06:20:50.815Z,0.18
2018-01-15T06:21:31.375Z,0.21
2018-01-15T06:22:11.941Z,0.26
2018-01-15T06:22:52.503Z,0.16
2018-01-15T06:23:33.072Z,0.16
2018-01-15T06:24:13.645Z,0.15
2018-01-15T06:24:54.239Z,0.18
2018-01-15T06:25:34.803Z,0.29
2018-01-15T06:26:15.372Z,0.18
2018-01-15T06:26:55.950Z,0.11
2018-01-15T06:27:36.514Z,0.21
2018-01-15T06:28:17.099Z,0.21
2018-01-15T06:28:57.655Z,0.22
2018-01-15T06:29:38.224Z,0.22
2018-01-15T06:30:18.817Z,0.21
2018-01-15T06:30:59.404Z,0.22
2018-01-15T06:31:39.954Z,0.12
2018-01-15T06:32:20.529Z,0.21
2018-01-15T06:33:01.107Z,0.16
2018-01-15T06:33:41.659Z,0.26
2018-01-15T06:34:22.233Z,0.23
2018-01-15T06:35:02.801Z,0.22
2018-01-15T06:35:43.388Z,0.11
2018-01-15T06:36:23.989Z,0.22
2018-01-15T06:37:04.558Z,0.12
2018-01-15T06:37:45.119Z,0.18
2018-01-15T06:38:25.683Z,0.19
2018-01-15T06:39:06.238Z,0.18
2018-01-15T06:39:46.807Z,0.16
2018-01-15T06:40:27.428Z,0.21
2018-01-15T06:41:07.980Z,0.23
2018-01-15T06:41:48.545Z,0.23
2018-01-15T06:42:29.100Z,0.31
2018-01-15T06:43:09.670Z,0.28
2018-01-15T06:43:50.240Z,0.49
2018-01-15T06:44:30.810Z,0.84
2018-01-15T06:45:11.360Z,1.02
2018-01-15T06:45:51.931Z,1.2
2018-01-15T06:46:32.469Z,1.5
2018-01-15T06:47:13.039Z,1.71
2018-01-15T06:47:54.456Z,1.95
2018-01-15T06:48:34.175Z,2.11
2018-01-15T06:49:14.795Z,2.04
2018-01-15T06:49:55.371Z,2.15
2018-01-15T06:50:35.922Z,2.31
2018-01-15T06:51:16.509Z,2.46
2018-01-15T06:51:57.095Z,2.67
2018-01-15T06:52:37.649Z,2.71
2018-01-15T06:53:18.207Z,2.75
2018-01-15T06:53:58.860Z,2.86
2018-01-15T06:54:39.478Z,2.89
2018-01-15T06:55:20.044Z,3.1
2018-01-15T06:56:00.600Z,3.08
2018-01-15T06:56:41.156Z,3.25
2018-01-15T06:57:21.717Z,3.29
2018-01-15T06:58:02.414Z,3.4
2018-01-15T06:58:42.998Z,3.4
2018-01-15T06:59:23.569Z,3.37
2018-01-15T07:00:04.137Z,3.34
2018-01-15T07:00:44.804Z,3.41
2018-01-15T07:01:26.722Z,3.36
2018-01-15T07:02:07.303Z,3.37
2018-01-15T07:02:47.872Z,3.51
2018-01-15T07:03:28.439Z,3.48
2018-01-15T07:04:09.003Z,3.47
2018-01-15T07:04:49.563Z,3.56
2018-01-15T07:05:30.119Z,3.53
2018-01-15T07:06:10.699Z,3.58
2018-01-15T07:06:51.273Z,3.53
2018-01-15T07:07:31.836Z,3.56
2018-01-15T07:08:12.404Z,3.63
2018-01-15T07:08:52.966Z,3.59
2018-01-15T07:09:33.528Z,3.53
2018-01-15T07:10:14.086Z,3.48
2018-01-15T07:10:54.664Z,3.45
2018-01-15T07:11:35.241Z,3.41
2018-01-15T07:12:15.801Z,3.53
2018-01-15T07:12:56.347Z,3.63
2018-01-15T07:13:36.906Z,3.68
2018-01-15T07:15:29.471Z,3.74
2018-01-15T07:16:10.033Z,3.8
2018-01-15T07:16:50.617Z,3.91
2018-01-15T07:17:31.200Z,4.01
2018-01-15T07:18:11.778Z,4.02
2018-01-15T07:18:52.335Z,4.05
2018-01-15T07:19:32.903Z,4.02
2018-01-15T07:20:13.471Z,3.98
2018-01-15T07:20:54.062Z,3.88
2018-01-15T07:21:34.609Z,3.78
2018-01-15T07:22:15.169Z,3.73
2018-01-15T07:22:55.738Z,3.76
2018-01-15T07:23:36.288Z,3.78
2018-01-15T07:24:16.843Z,3.87
2018-01-15T07:24:57.448Z,3.86
2018-01-15T07:25:38.008Z,3.83
2018-01-15T07:26:18.581Z,3.74
2018-01-15T07:26:59.174Z,3.62
2018-01-15T07:27:39.747Z,3.4
2018-01-15T07:28:20.311Z,3.23
2018-01-15T07:29:00.882Z,3.13
2018-01-15T07:29:41.448Z,2.87
2018-01-15T07:30:22.008Z,2.71
2018-01-15T07:31:02.585Z,2.42
2018-01-15T07:31:43.150Z,2.35
2018-01-15T07:32:23.718Z,2.14
2018-01-15T07:33:04.310Z,2.13
2018-01-15T07:33:44.848Z,1.95
2018-01-15T07:34:25.410Z,1.87
2018-01-15T07:35:05.987Z,1.76
2018-01-15T07:35:46.561Z,1.67
2018-01-15T07:36:27.122Z,1.53
2018-01-15T07:37:07.693Z,1.48
2018-01-15T07:37:48.253Z,1.38
2018-01-15T07:38:28.820Z,1.32
2018-01-15T07:39:09.390Z,1.22
2018-01-15T07:39:49.952Z,1.23
2018-01-15T07:40:30.523Z,1.12
2018-01-15T07:41:11.099Z,1.13
2018-01-15T07:41:51.684Z,1.06
2018-01-15T07:42:32.257Z,1.01
2018-01-15T07:43:12.818Z,1.01
2018-01-15T07:43:53.374Z,0.91
2018-01-15T07:44:33.938Z,0.94
2018-01-15T07:45:14.491Z,0.84
2018-01-15T07:45:55.053Z,0.86
2018-01-15T07:46:35.605Z,0.76
2018-01-15T07:47:16.160Z,0.77
2018-01-15T07:47:56.710Z,0.63
2018-01-15T07:48:37.272Z,0.66
2018-01-15T07:49:17.851Z,0.63
2018-01-15T07:49:58.394Z,0.68
2018-01-15T07:50:38.948Z,0.69
2018-01-15T07:51:19.557Z,0.7
2018-01-15T07:52:00.116Z,0.68
2018-01-15T07:52:40.672Z,0.66
2018-01-15T07:53:21.250Z,0.7
2018-01-15T07:54:01.863Z,0.65
2018-01-15T07:54:42.435Z,0.69
2018-01-15T07:55:22.988Z,0.74
2018-01-15T07:56:03.570Z,0.65
2018-01-15T07:56:44.134Z,0.52
2018-01-15T07:57:24.753Z,0.58
2018-01-15T07:58:05.361Z,0.55
2018-01-15T07:58:45.921Z,0.5
2018-01-15T07:59:26.491Z,0.36
2018-01-15T08:00:07.076Z,0.37
2018-01-15T08:00:47.636Z,0.39
2018-01-15T08:01:28.189Z,0.47
2018-01-15T08:02:08.745Z,0.31
2018-01-15T08:02:49.309Z,0.39
2018-01-15T08:03:29.885Z,0.39
2018-01-15T08:04:10.450Z,0.41
2018-01-15T08:04:51.005Z,0.28
2018-01-15T08:05:31.563Z,0.34
2018-01-15T08:06:12.119Z,0.28
2018-01-15T08:06:52.681Z,0.26
2018-01-15T08:07:33.239Z,0.22
2018-01-15T08:08:13.800Z,0.26
2018-01-15T08:08:54.379Z,0.22
2018-01-15T08:09:34.942Z,0.21
2018-01-15T08:10:15.497Z,0.23
2018-01-15T08:10:56.059Z,0.28
2018-01-15T08:11:36.634Z,0.26
2018-01-15T08:12:17.215Z,0.26
2018-01-15T08:12:57.777Z,0.25
2018-01-15T08:13:38.331Z,0.21
2018-01-15T08:14:18.892Z,0.23
2018-01-15T08:14:59.447Z,0.22
2018-01-15T08:15:40.005Z,0.22
2018-01-15T08:16:20.569Z,0.23
2018-01-15T08:17:01.163Z,0.23
2018-01-15T08:17:41.698Z,0.19
2018-01-15T08:18:22.284Z,0.23
2018-01-15T08:19:02.848Z,0.25
2018-01-15T08:19:43.398Z,0.28
2018-01-15T08:20:23.984Z,0.22
2018-01-15T08:21:04.545Z,0.25
2018-01-15T08:21:45.112Z,0.25
2018-01-15T08:22:25.681Z,0.26
2018-01-15T08:23:06.218Z,0.23
2018-01-15T08:23:46.774Z,0.21
2018-01-15T08:24:27.344Z,0.26
2018-01-15T08:25:07.917Z,0.21
2018-01-15T08:25:48.504Z,0.21
2018-01-15T08:26:29.088Z,0.23
2018-01-15T08:27:09.686Z,0.21
2018-01-15T08:27:50.265Z,0.15
2018-01-15T08:28:30.813Z,0.22
2018-01-15T08:29:11.393Z,0.21
2018-01-15T08:29:51.982Z,0.18
2018-01-15T08:30:32.569Z,0.28
2018-01-15T08:31:13.129Z,0.26
2018-01-15T08:31:53.693Z,0.22
2018-01-15T08:32:34.259Z,0.21
2018-01-15T08:33:14.845Z,0.29
2018-01-15T08:33:55.418Z,0.31
2018-01-15T08:34:36.044Z,0.15
2018-01-15T08:35:16.685Z,0.34
2018-01-15T08:35:57.220Z,0.28
2018-01-15T08:36:37.778Z,0.25
2018-01-15T08:37:18.344Z,0.23
2018-01-15T08:37:58.912Z,0.23
2018-01-15T08:38:39.468Z,0.26
2018-01-15T08:39:20.024Z,0.23
2018-01-15T08:40:00.580Z,0.28
2018-01-15T08:40:41.151Z,0.21
2018-01-15T08:41:21.697Z,0.25
2018-01-15T08:42:02.253Z,0.25
2018-01-15T08:42:42.842Z,0.23
2018-01-15T08:43:23.396Z,0.21
2018-01-15T08:44:03.953Z,0.19
2018-01-15T08:44:44.515Z,0.19
2018-01-15T08:45:25.085Z,0.23
2018-01-15T08:46:05.636Z,0.19
2018-01-15T08:46:46.201Z,0.31
2018-01-15T08:47:26.752Z,0.21
2018-01-15T08:48:07.300Z,0.28
2018-01-15T08:48:47.879Z,0.41
2018-01-15T08:49:28.449Z,0.47
2018-01-15T08:50:09.010Z,0.37
2018-01-15T08:50:49.623Z,0.49
2018-01-15T08:51:30.144Z,0.56
2018-01-15T08:52:10.693Z,0.68
2018-01-15T08:52:51.271Z,0.78
2018-01-15T08:53:31.840Z,0.84
2018-01-15T08:54:12.401Z,0.96
2018-01-15T08:54:53.017Z,0.98
2018-01-15T08:55:33.578Z,1.06
2018-01-15T08:56:14.161Z,1.14
2018-01-15T08:56:54.725Z,1.2
2018-01-15T08:57:35.305Z,1.32
2018-01-15T08:58:15.867Z,1.38